createdAt,value
2022-10-28T00:01:36.643Z,10.89
2022-10-28T00:04:05.528Z,11.11
2022-10-28T00:06:36.792Z,11.20
2022-10-28T00:09:09.660Z,11.12
2022-10-28T00:11:41.126Z,10.99
2022-10-28T00:14:11.912Z,10.98
2022-10-28T00:16:41.253Z,10.90
2022-10-28T00:19:12.928Z,10.91
2022-10-28T00:21:44.590Z,10.54
2022-10-28T00:24:14.937Z,10.38
2022-10-28T00:26:45.097Z,10.41
2022-10-28T00:29:18.074Z,10.41
2022-10-28T00:31:48.014Z,10.10
2022-10-28T00:34:19.576Z,10.14
2022-10-28T00:36:49.329Z,10.01
2022-10-28T00:39:23.223Z,9.68
2022-10-28T00:41:59.827Z,9.49
2022-10-28T00:45:00.664Z,9.55
2022-10-28T00:47:31.951Z,9.60
2022-10-28T00:50:22.067Z,9.43
2022-10-28T00:52:57.405Z,8.98
2022-10-28T00:55:27.971Z,8.82
2022-10-28T00:57:58.249Z,8.56
2022-10-28T01:00:28.243Z,8.33
2022-10-28T01:02:57.596Z,8.21
2022-10-28T01:05:30.623Z,8.24
2022-10-28T01:08:04.204Z,8.19
2022-10-28T01:10:54.889Z,9.05
2022-10-28T01:13:53.937Z,8.89
2022-10-28T01:16:44.591Z,8.60
2022-10-28T01:20:06.857Z,8.30
2022-10-28T01:22:43.969Z,8.16
2022-10-28T01:25:24.733Z,8.13
2022-10-28T01:28:26.889Z,8.05
2022-10-28T01:31:20.229Z,8.01
2022-10-28T01:34:11.089Z,8.23
2022-10-28T01:36:52.430Z,8.53
2022-10-28T01:39:50.221Z,8.74
2022-10-28T01:42:42.972Z,9.24
2022-10-28T01:45:12.007Z,9.58
2022-10-28T01:48:06.390Z,9.93
2022-10-28T01:51:04.224Z,10.19
2022-10-28T01:53:37.161Z,10.52
2022-10-28T01:56:12.969Z,10.88
2022-10-28T01:58:44.142Z,11.39
2022-10-28T02:01:14.704Z,11.63
2022-10-28T02:03:43.469Z,11.98
2022-10-28T02:06:24.165Z,12.33
2022-10-28T02:09:26.402Z,12.92
2022-10-28T02:11:55.449Z,13.28
2022-10-28T02:14:53.040Z,13.58
2022-10-28T02:17:33.270Z,14.10
2022-10-28T02:20:09.262Z,14.38
2022-10-28T02:23:02.062Z,14.64
2022-10-28T02:25:38.586Z,14.92
2022-10-28T02:30:53.590Z,15.73
2022-10-28T02:33:31.537Z,16.13
2022-10-28T02:36:15.914Z,16.20
2022-10-28T02:38:52.198Z,16.36
2022-10-28T02:41:46.104Z,16.49
2022-10-28T02:44:22.950Z,16.63
2022-10-28T02:46:53.545Z,17.04
2022-10-28T02:49:24.007Z,16.89
2022-10-28T02:51:58.679Z,16.55
2022-10-28T02:54:39.235Z,16.81
2022-10-28T02:57:26.510Z,17.01
2022-10-28T03:00:00.547Z,17.08
2022-10-28T03:02:30.028Z,17.18
2022-10-28T03:04:59.590Z,16.86
2022-10-28T03:07:28.253Z,17.02
2022-10-28T03:09:57.467Z,16.52
2022-10-28T03:12:26.047Z,16.62
2022-10-28T03:14:55.047Z,16.81
2022-10-28T03:17:23.722Z,16.91
2022-10-28T03:19:52.631Z,16.94
2022-10-28T03:22:21.285Z,17.51
2022-10-28T03:24:50.274Z,17.48
2022-10-28T03:27:19.164Z,18.29
2022-10-28T03:29:48.153Z,18.54
2022-10-28T03:32:16.770Z,18.59
2022-10-28T03:34:45.585Z,18.57
2022-10-28T03:37:15.266Z,18.48
2022-10-28T03:39:44.077Z,18.12
2022-10-28T03:42:12.774Z,18.12
2022-10-28T03:44:41.677Z,17.97
2022-10-28T03:47:10.315Z,17.61
2022-10-28T03:49:39.262Z,17.58
2022-10-28T03:52:08.075Z,17.27
2022-10-28T03:54:37.412Z,17.11
2022-10-28T03:57:06.102Z,16.76
2022-10-28T03:59:35.058Z,16.68
2022-10-28T04:02:03.815Z,16.36
2022-10-28T04:04:32.666Z,16.36
2022-10-28T04:07:01.409Z,16.17
2022-10-28T04:09:30.465Z,15.96
2022-10-28T04:11:59.178Z,15.87
2022-10-28T04:14:28.043Z,15.80
2022-10-28T04:16:57.040Z,15.53
2022-10-28T04:19:25.978Z,15.41
2022-10-28T04:21:54.657Z,15.59
2022-10-28T04:24:23.453Z,15.27
2022-10-28T04:26:52.386Z,15.53
2022-10-28T04:29:21.162Z,15.40
2022-10-28T04:31:52.197Z,15.55
2022-10-28T04:34:21.478Z,15.47
2022-10-28T04:36:50.187Z,15.67
2022-10-28T04:39:19.078Z,15.46
2022-10-28T04:41:48.335Z,15.47
2022-10-28T04:44:17.949Z,15.54
2022-10-28T04:46:46.653Z,15.41
2022-10-28T04:49:15.725Z,15.58
2022-10-28T04:51:44.362Z,15.69
2022-10-28T04:54:13.347Z,16.15
2022-10-28T04:56:42.189Z,16.27
2022-10-28T04:59:10.924Z,16.33
2022-10-28T05:01:39.720Z,16.12
2022-10-28T05:04:09.055Z,16.57
2022-10-28T05:06:37.584Z,16.76
2022-10-28T05:09:06.538Z,17.12
2022-10-28T05:11:35.241Z,17.45
2022-10-28T05:14:04.188Z,17.67
2022-10-28T05:16:32.910Z,18.02
2022-10-28T05:19:01.906Z,18.15
2022-10-28T05:21:30.540Z,17.99
2022-10-28T05:23:59.546Z,18.67
2022-10-28T05:26:28.266Z,18.70
2022-10-28T05:28:57.052Z,19.00
2022-10-28T05:31:25.792Z,19.29
2022-10-28T05:33:54.908Z,19.94
2022-10-28T05:36:23.767Z,20.49
2022-10-28T05:38:52.548Z,20.76
2022-10-28T05:41:23.197Z,20.98
2022-10-28T05:43:52.940Z,20.99
2022-10-28T05:46:23.206Z,21.31
2022-10-28T05:48:53.027Z,21.26
2022-10-28T05:51:21.883Z,21.31
2022-10-28T05:53:52.378Z,21.62
2022-10-28T05:56:21.554Z,22.68
2022-10-28T06:01:24.568Z,22.79
2022-10-28T06:03:53.701Z,23.23
2022-10-28T06:06:23.187Z,23.45
2022-10-28T06:08:51.928Z,23.56
2022-10-28T06:11:19.422Z,23.65
2022-10-28T06:13:48.645Z,23.61
2022-10-28T06:16:17.964Z,23.73
2022-10-28T06:18:46.582Z,23.73
2022-10-28T06:21:15.462Z,23.60
2022-10-28T06:23:44.087Z,23.85
2022-10-28T06:26:13.097Z,24.28
2022-10-28T06:28:42.110Z,24.08
2022-10-28T06:31:11.025Z,24.51
2022-10-28T06:33:39.714Z,24.62
2022-10-28T06:36:09.106Z,25.01
2022-10-28T06:38:38.314Z,25.11
2022-10-28T06:41:07.241Z,24.71
2022-10-28T06:43:36.048Z,24.95
2022-10-28T06:46:05.404Z,25.07
2022-10-28T06:48:35.490Z,25.23
2022-10-28T06:51:04.299Z,24.65
2022-10-28T06:53:33.001Z,24.82
2022-10-28T06:56:02.084Z,24.68
2022-10-28T06:58:30.775Z,25.14
2022-10-28T07:01:05.737Z,25.11
2022-10-28T07:03:34.824Z,25.26
2022-10-28T07:06:03.687Z,25.47
2022-10-28T07:08:33.677Z,24.89
2022-10-28T07:11:03.561Z,24.54
2022-10-28T07:13:32.289Z,24.58
2022-10-28T07:16:02.594Z,24.68
2022-10-28T07:18:32.610Z,24.94
2022-10-28T07:21:02.629Z,24.97
2022-10-28T07:23:35.432Z,24.98
2022-10-28T07:26:04.765Z,25.23
2022-10-28T07:28:33.788Z,25.76
2022-10-28T07:31:04.338Z,25.60
2022-10-28T07:33:33.483Z,25.14
2022-10-28T07:36:05.688Z,24.86
2022-10-28T07:38:35.469Z,25.10
2022-10-28T07:41:09.586Z,24.75
2022-10-28T07:43:39.983Z,24.84
2022-10-28T07:46:09.702Z,25.68
2022-10-28T07:48:39.616Z,24.95
2022-10-28T07:51:11.678Z,25.05
2022-10-28T07:53:41.515Z,24.51
2022-10-28T07:56:15.891Z,25.01
2022-10-28T07:58:46.908Z,24.99
2022-10-28T08:01:18.834Z,25.41
2022-10-28T08:03:50.891Z,25.06
2022-10-28T08:06:21.878Z,25.59
2022-10-28T08:08:55.216Z,25.34
2022-10-28T08:11:25.484Z,24.96
2022-10-28T08:13:56.547Z,25.19
2022-10-28T08:16:26.318Z,25.56
2022-10-28T08:18:55.366Z,25.43
2022-10-28T08:21:25.477Z,25.82
2022-10-28T08:23:56.043Z,24.73
2022-10-28T08:26:24.872Z,25.41
2022-10-28T08:28:54.321Z,26.33
2022-10-28T08:31:23.155Z,25.73
2022-10-28T08:33:51.904Z,25.87
2022-10-28T08:36:20.748Z,25.97
2022-10-28T08:38:49.413Z,26.01
2022-10-28T08:41:28.884Z,25.67
2022-10-28T08:44:24.684Z,25.70
2022-10-28T08:47:14.699Z,25.63
2022-10-28T08:49:48.557Z,25.35
2022-10-28T08:52:40.789Z,25.11
2022-10-28T08:55:34.131Z,24.91
2022-10-28T08:58:28.014Z,24.77
2022-10-28T09:01:00.797Z,24.45
2022-10-28T09:03:45.921Z,24.27
2022-10-28T09:06:14.816Z,24.23
2022-10-28T09:08:46.606Z,23.78
2022-10-28T09:11:36.952Z,23.68
2022-10-28T09:14:35.319Z,23.73
2022-10-28T09:19:54.840Z,23.38
2022-10-28T09:22:32.781Z,23.74
2022-10-28T09:25:12.454Z,23.56
2022-10-28T09:28:18.113Z,23.40
2022-10-28T09:31:18.840Z,23.37
2022-10-28T09:34:02.606Z,23.74
2022-10-28T09:36:39.943Z,23.01
2022-10-28T09:39:16.671Z,22.61
2022-10-28T09:41:47.687Z,22.79
2022-10-28T09:44:26.504Z,23.04
2022-10-28T09:46:58.214Z,23.07
2022-10-28T09:49:32.269Z,23.43
2022-10-28T09:52:19.795Z,23.59
2022-10-28T09:54:54.858Z,23.68
2022-10-28T09:57:30.691Z,23.61
2022-10-28T10:00:01.131Z,23.45
2022-10-28T10:02:33.593Z,23.74
2022-10-28T10:05:03.846Z,23.91
2022-10-28T10:07:38.732Z,23.81
2022-10-28T10:10:17.492Z,23.98
2022-10-28T10:12:51.507Z,23.95
2022-10-28T10:15:30.922Z,23.86
2022-10-28T10:18:03.890Z,23.91
2022-10-28T10:20:54.131Z,23.84
2022-10-28T10:26:23.392Z,24.08
2022-10-28T10:28:53.111Z,23.93
2022-10-28T10:31:28.351Z,23.93
2022-10-28T10:33:58.981Z,23.78
2022-10-28T10:36:29.886Z,23.57
2022-10-28T10:39:01.458Z,23.40
2022-10-28T10:41:43.848Z,23.47
2022-10-28T10:44:21.997Z,23.41
2022-10-28T10:46:56.563Z,22.95
2022-10-28T10:49:25.381Z,23.23
2022-10-28T10:51:55.392Z,22.91
2022-10-28T10:54:27.270Z,22.77
2022-10-28T10:59:31.489Z,22.32
2022-10-28T11:02:01.192Z,22.35
2022-10-28T11:04:31.094Z,22.12
2022-10-28T11:07:00.059Z,21.57
2022-10-28T11:09:37.085Z,21.36
2022-10-28T11:12:31.281Z,21.17
2022-10-28T11:15:18.406Z,20.79
2022-10-28T11:18:04.272Z,19.69
2022-10-28T11:20:56.116Z,19.23
2022-10-28T11:23:49.381Z,18.54
2022-10-28T11:26:20.659Z,18.07
2022-10-28T11:29:12.770Z,17.75
2022-10-28T11:32:08.434Z,17.24
2022-10-28T11:34:50.269Z,16.87
2022-10-28T11:37:53.964Z,16.40
2022-10-28T11:40:30.145Z,16.09
2022-10-28T11:43:24.787Z,15.75
2022-10-28T11:45:53.954Z,15.41
2022-10-28T11:48:34.779Z,15.12
2022-10-28T11:51:12.721Z,14.80
2022-10-28T11:53:48.375Z,14.63
2022-10-28T11:56:35.601Z,14.29
2022-10-28T11:59:25.912Z,14.17
2022-10-28T12:02:13.576Z,13.81
2022-10-28T12:05:16.760Z,13.73
2022-10-28T12:08:07.084Z,13.71
2022-10-28T12:11:02.117Z,13.58
2022-10-28T12:14:04.848Z,13.26
2022-10-28T12:16:36.818Z,13.26
2022-10-28T12:19:10.910Z,13.09
2022-10-28T12:21:49.535Z,12.91
2022-10-28T12:24:23.738Z,12.89
2022-10-28T12:26:59.317Z,12.81
2022-10-28T12:29:38.264Z,12.69
2022-10-28T12:32:19.586Z,12.55
2022-10-28T12:35:25.171Z,12.58
2022-10-28T12:37:58.705Z,12.47
2022-10-28T12:40:33.110Z,12.15
2022-10-28T12:43:13.860Z,12.36
2022-10-28T12:45:44.902Z,12.17
2022-10-28T12:48:38.168Z,12.06
2022-10-28T12:51:22.664Z,12.18
2022-10-28T12:54:13.177Z,12.19
2022-10-28T12:56:54.284Z,12.14
2022-10-28T12:59:35.018Z,12.18
2022-10-28T13:02:11.539Z,11.92
2022-10-28T13:04:41.352Z,12.00
2022-10-28T13:07:37.896Z,12.08
2022-10-28T13:10:18.854Z,12.06
2022-10-28T13:13:09.274Z,12.10
2022-10-28T13:15:58.471Z,12.07
2022-10-28T13:19:03.536Z,11.96
2022-10-28T13:22:10.753Z,12.01
2022-10-28T13:25:03.705Z,11.82
2022-10-28T13:27:33.428Z,11.57
2022-10-28T13:30:04.544Z,11.33
2022-10-28T13:32:40.907Z,11.61
2022-10-28T13:35:17.431Z,11.36
2022-10-28T13:37:51.363Z,11.31
2022-10-28T13:40:32.651Z,11.28
2022-10-28T13:43:03.320Z,11.16
2022-10-28T13:45:55.350Z,11.16
2022-10-28T13:48:30.227Z,11.11
2022-10-28T13:51:11.403Z,11.04
2022-10-28T13:53:47.567Z,10.99
2022-10-28T13:56:44.510Z,10.94
2022-10-28T13:59:13.877Z,10.98
2022-10-28T14:02:07.326Z,11.03
2022-10-28T14:04:44.864Z,11.08
2022-10-28T14:07:13.651Z,11.10
2022-10-28T14:09:43.909Z,11.08
2022-10-28T14:12:27.898Z,11.23
2022-10-28T14:21:15.589Z,11.13
2022-10-28T14:23:44.534Z,11.13
2022-10-28T14:26:13.441Z,11.06
2022-10-28T14:28:41.928Z,11.14
2022-10-28T14:31:13.571Z,11.18
2022-10-28T14:33:45.468Z,11.19
2022-10-28T14:36:20.446Z,11.09
2022-10-28T14:39:25.775Z,11.03
2022-10-28T14:45:23.056Z,11.03
2022-10-28T14:48:20.996Z,10.71
2022-10-28T14:50:53.860Z,10.93
2022-10-28T14:53:35.379Z,10.90
2022-10-28T14:56:08.754Z,10.68
2022-10-28T14:58:45.752Z,10.80
2022-10-28T15:01:17.731Z,10.83
2022-10-28T15:03:56.904Z,10.82
2022-10-28T15:09:31.724Z,10.77
2022-10-28T15:12:08.690Z,10.80
2022-10-28T15:14:42.480Z,10.82
2022-10-28T15:17:17.702Z,10.61
2022-10-28T15:19:49.862Z,10.69
2022-10-28T15:22:24.994Z,10.57
2022-10-28T15:24:58.786Z,10.77
2022-10-28T15:27:31.616Z,10.72
2022-10-28T15:30:01.469Z,10.77
2022-10-28T15:32:33.106Z,10.51
2022-10-28T15:35:28.979Z,10.57
2022-10-28T15:38:03.184Z,10.19
2022-10-28T15:40:34.981Z,10.08
2022-10-28T15:43:26.258Z,10.20
2022-10-28T15:45:58.147Z,10.33
2022-10-28T15:48:28.782Z,10.30
2022-10-28T15:51:18.230Z,10.26
2022-10-28T15:53:54.988Z,10.17
2022-10-28T15:59:22.971Z,10.16
2022-10-28T16:01:52.363Z,9.97
2022-10-28T16:04:24.440Z,10.09
2022-10-28T16:06:56.032Z,9.82
2022-10-28T16:09:34.156Z,10.23
2022-10-28T16:12:18.812Z,9.93
2022-10-28T16:14:54.842Z,10.06
2022-10-28T16:20:19.043Z,10.15
2022-10-28T16:22:49.768Z,10.05
2022-10-28T16:25:23.847Z,10.06
2022-10-28T16:27:53.482Z,10.37
2022-10-28T16:32:56.414Z,9.84
2022-10-28T16:35:25.774Z,10.04
2022-10-28T16:37:55.848Z,9.57
2022-10-28T16:40:49.845Z,9.85
2022-10-28T16:43:20.525Z,9.95
2022-10-28T16:45:50.637Z,10.01
2022-10-28T16:48:20.916Z,9.90
2022-10-28T16:50:53.209Z,10.22
2022-10-28T16:53:23.174Z,10.25
2022-10-28T16:55:52.431Z,10.20
2022-10-28T16:58:23.284Z,10.01
2022-10-28T17:00:56.105Z,9.91
2022-10-28T17:03:24.845Z,9.85
2022-10-28T17:05:53.591Z,9.92
2022-10-28T17:08:42.195Z,9.83
2022-10-28T17:11:16.407Z,9.76
2022-10-28T17:13:45.365Z,9.58
2022-10-28T17:16:14.126Z,9.70
2022-10-28T17:18:44.568Z,10.05
2022-10-28T17:26:46.963Z,10.14
2022-10-28T17:29:16.475Z,10.42
2022-10-28T17:31:45.646Z,10.14
2022-10-28T17:34:14.675Z,10.06
2022-10-28T17:36:43.514Z,10.08
2022-10-28T17:39:17.004Z,10.04
2022-10-28T17:41:47.785Z,10.10
2022-10-28T17:44:16.613Z,9.92
2022-10-28T17:46:45.441Z,9.94
2022-10-28T17:49:14.292Z,9.81
2022-10-28T17:51:43.128Z,10.09
2022-10-28T17:54:12.322Z,10.05
2022-10-28T17:56:42.875Z,9.80
2022-10-28T17:59:11.688Z,9.95
2022-10-28T18:01:40.641Z,9.87
2022-10-28T18:04:09.878Z,9.83
2022-10-28T18:06:38.760Z,9.41
2022-10-28T18:09:12.575Z,9.54
2022-10-28T18:11:42.459Z,9.71
2022-10-28T18:14:11.207Z,9.61
2022-10-28T18:16:40.185Z,9.71
2022-10-28T18:19:09.461Z,9.78
2022-10-28T18:21:38.577Z,9.70
2022-10-28T18:24:07.666Z,9.71
2022-10-28T18:26:38.930Z,9.63
2022-10-28T18:29:11.084Z,9.85
2022-10-28T18:31:41.810Z,9.69
2022-10-28T18:34:11.379Z,9.39
2022-10-28T18:36:40.169Z,9.87
2022-10-28T18:39:09.620Z,9.87
2022-10-28T18:41:42.467Z,9.81
2022-10-28T18:44:18.018Z,9.97
2022-10-28T18:46:47.428Z,9.83
2022-10-28T18:49:16.172Z,9.81
2022-10-28T18:51:45.039Z,10.09
2022-10-28T18:54:13.698Z,9.79
2022-10-28T18:56:47.607Z,9.77
2022-10-28T18:59:17.912Z,9.88
2022-10-28T19:01:47.662Z,10.00
2022-10-28T19:04:16.590Z,9.92
2022-10-28T19:09:30.672Z,9.79
2022-10-28T19:11:59.541Z,9.84
2022-10-28T19:14:29.199Z,10.17
2022-10-28T19:16:57.788Z,10.12
2022-10-28T19:19:26.671Z,10.08
2022-10-28T19:21:57.774Z,9.92
2022-10-28T19:24:27.547Z,9.91
2022-10-28T19:26:56.531Z,9.94
2022-10-28T19:29:25.424Z,10.11
2022-10-28T19:34:39.804Z,9.77
2022-10-28T19:37:09.417Z,9.73
2022-10-28T19:39:38.485Z,9.71
2022-10-28T19:42:07.269Z,9.84
2022-10-28T19:44:36.317Z,9.60
2022-10-28T19:47:04.973Z,9.85
2022-10-28T19:49:37.222Z,9.72
2022-10-28T19:52:07.427Z,9.76
2022-10-28T19:54:36.001Z,9.67
2022-10-28T19:57:04.998Z,9.73
2022-10-28T19:59:33.656Z,9.94
2022-10-28T20:02:02.486Z,9.93
2022-10-28T20:04:31.119Z,10.00
2022-10-28T20:07:01.165Z,10.04
2022-10-28T20:09:29.832Z,10.05
2022-10-28T20:11:58.829Z,9.89
2022-10-28T20:14:27.578Z,9.89
2022-10-28T20:16:56.611Z,9.77
2022-10-28T20:19:25.343Z,9.68
2022-10-28T20:21:54.407Z,9.46
2022-10-28T20:24:23.345Z,9.58
2022-10-28T20:26:52.138Z,9.62
2022-10-28T20:29:21.001Z,9.43
2022-10-28T20:31:49.847Z,9.37
2022-10-28T20:34:18.428Z,9.16
2022-10-28T20:36:47.336Z,9.28
2022-10-28T20:39:18.470Z,9.27
2022-10-28T20:41:49.005Z,9.33
2022-10-28T20:44:18.206Z,9.15
2022-10-28T20:46:48.697Z,8.98
2022-10-28T20:49:17.953Z,9.01
2022-10-28T20:51:46.943Z,8.88
2022-10-28T20:54:16.060Z,8.90
2022-10-28T20:56:45.738Z,8.82
2022-10-28T20:59:14.720Z,8.79
2022-10-28T21:01:43.602Z,8.41
2022-10-28T21:06:58.436Z,8.95
2022-10-28T21:12:12.571Z,8.88
2022-10-28T21:14:41.525Z,8.70
2022-10-28T21:17:10.304Z,8.87
2022-10-28T21:19:39.064Z,8.87
2022-10-28T21:22:07.986Z,8.74
2022-10-28T21:24:36.694Z,9.00
2022-10-28T21:27:05.888Z,8.94
2022-10-28T21:29:34.590Z,8.80
2022-10-28T21:32:03.421Z,8.78
2022-10-28T21:34:35.225Z,9.04
2022-10-28T21:37:04.480Z,8.94
2022-10-28T21:39:33.134Z,9.02
2022-10-28T21:42:02.460Z,9.12
2022-10-28T21:44:31.089Z,9.06
2022-10-28T21:47:02.120Z,9.08
2022-10-28T21:49:30.940Z,9.09
2022-10-28T21:51:59.608Z,9.04
2022-10-28T21:54:28.508Z,9.02
2022-10-28T21:56:57.142Z,9.23
2022-10-28T21:59:26.043Z,9.26
2022-10-28T22:01:55.191Z,8.99
2022-10-28T22:04:24.459Z,9.60
2022-10-28T22:06:53.107Z,9.47
2022-10-28T22:09:22.230Z,9.81
2022-10-28T22:11:50.924Z,9.72
2022-10-28T22:14:19.819Z,9.70
2022-10-28T22:16:48.640Z,9.55
2022-10-28T22:19:18.329Z,9.56
2022-10-28T22:21:47.221Z,9.87
2022-10-28T22:24:16.032Z,9.60
2022-10-28T22:26:44.810Z,10.09
2022-10-28T22:29:13.826Z,9.54
2022-10-28T22:31:42.576Z,10.20
2022-10-28T22:34:11.502Z,10.20
2022-10-28T22:36:41.624Z,9.99
2022-10-28T22:39:10.660Z,9.91
2022-10-28T22:41:39.321Z,9.64
2022-10-28T22:44:08.583Z,9.68
2022-10-28T22:46:37.597Z,9.76
2022-10-28T22:49:06.464Z,9.64
2022-10-28T22:51:35.209Z,9.45
2022-10-28T22:54:04.089Z,9.52
2022-10-28T22:56:32.945Z,9.38
2022-10-28T22:59:03.283Z,9.65
2022-10-28T23:01:32.192Z,9.61
2022-10-28T23:04:01.805Z,9.49
2022-10-28T23:06:31.191Z,9.76
2022-10-28T23:08:59.913Z,10.01
2022-10-28T23:11:28.933Z,9.82
2022-10-28T23:13:57.612Z,9.82
2022-10-28T23:16:26.947Z,9.71
2022-10-28T23:18:55.699Z,9.50
2022-10-28T23:21:26.215Z,9.69
2022-10-28T23:23:56.876Z,9.61
2022-10-28T23:26:27.330Z,9.57
2022-10-28T23:28:59.097Z,9.84
2022-10-28T23:31:28.758Z,9.83
2022-10-28T23:33:57.396Z,9.55
2022-10-28T23:36:26.371Z,9.62
2022-10-28T23:38:57.920Z,9.46
2022-10-28T23:41:26.927Z,9.52
2022-10-28T23:43:55.519Z,9.57
2022-10-28T23:46:25.957Z,9.40
2022-10-28T23:48:54.924Z,9.56
2022-10-28T23:51:23.757Z,9.54
2022-10-28T23:53:52.845Z,9.57
2022-10-28T23:56:21.518Z,9.55
2022-10-28T23:58:50.421Z,9.31
